Time;durP1;ratioP1;P1;durP2;ratioP2;P2;SDS_P1;SDS_P2;PMS_P1;PMS_P2;Temp;Humidity;BMP_temperature;BMP_pressure;BME280_temperature;BME280_humidity;BME280_pressure;Samples;Min_cycle;Max_cycle;Signal;HPM_P1;HPM_P2
2022/11/03 00:04:55;;;;;;;;;;;;;;;14.86;57.43;101259.00;18241316;32;20099;-59
2022/11/03 00:15:00;;;;;;;0.50;0.50;;;;;;;14.24;59.13;101254.91;18244716;32;19978;-59
2022/11/03 00:25:04;;;;;;;0.70;0.70;;;;;;;13.51;61.10;101258.56;18230586;32;20094;-59
2022/11/03 00:35:09;;;;;;;2.50;1.27;;;;;;;13.23;61.50;101250.69;18244243;32;20106;-59
2022/11/03 00:45:12;;;;;;;0.40;0.40;;;;;;;12.88;62.39;101251.50;18243932;32;20356;-59
2022/11/03 00:55:17;;;;;;;0.35;0.35;;;;;;;12.69;62.61;101254.09;18243484;32;20102;-59
2022/11/03 01:15:42;;;;;;;0.30;0.30;;;;;;;12.09;63.52;101253.84;18229146;32;20164;-59
2022/11/03 01:25:45;;;;;;;1.30;0.68;;;;;;;11.59;62.70;101256.12;18242816;32;20120;-59
2022/11/03 01:35:54;;;;;;;2.20;0.50;;;;;;;11.43;63.42;101256.00;18242792;32;20359;-59
2022/11/03 01:46:04;;;;;;;0.50;0.50;;;;;;;11.13;63.67;101259.22;18242054;32;20159;-59
2022/11/03 01:56:09;;;;;;;0.80;0.70;;;;;;;10.79;64.77;101265.88;18241641;32;20101;-59
2022/11/03 02:06:12;;;;;;;0.40;0.40;;;;;;;10.62;64.16;101257.88;18241865;32;20094;-59
2022/11/03 02:16:17;;;;;;;0.40;0.40;;;;;;;10.39;64.52;101234.06;18241665;32;20126;-59
2022/11/03 02:26:22;;;;;;;0.52;0.52;;;;;;;10.14;64.58;101232.00;18241005;32;20116;-59
2022/11/03 02:36:29;;;;;;;0.50;0.50;;;;;;;9.38;66.99;101245.66;18241951;32;20430;-59
2022/11/03 02:46:35;;;;;;;0.60;0.60;;;;;;;9.92;73.30;101263.87;18240498;32;20112;-59
2022/11/03 02:56:42;;;;;;;0.50;0.50;;;;;;;9.55;72.62;101265.06;18240639;32;20470;-59
2022/11/03 03:06:50;;;;;;;0.50;0.50;;;;;;;9.36;75.37;101270.81;18239409;32;20484;-59
2022/11/03 03:16:59;;;;;;;0.50;0.50;;;;;;;10.02;72.77;101265.75;18238784;32;20094;-59
2022/11/03 03:27:08;;;;;;;0.60;0.60;;;;;;;10.38;68.48;101264.50;18238148;32;20393;-59
2022/11/03 03:37:12;;;;;;;0.50;0.50;;;;;;;9.99;68.64;101263.13;18237095;32;75273;-59
2022/11/03 03:47:21;;;;;;;0.70;0.70;;;;;;;10.23;67.56;101253.84;18245279;32;20340;-59
2022/11/03 03:57:24;;;;;;;0.60;0.60;;;;;;;10.03;66.23;101249.25;18245104;32;20093;-59
2022/11/03 04:07:47;;;;;;;0.60;0.60;;;;;;;9.92;66.61;101250.84;18244736;32;20094;-59
2022/11/03 04:28:15;;;;;;;2.10;1.33;;;;;;;9.78;68.46;101258.44;18279116;32;20441;-59
2022/11/03 04:38:23;;;;;;;0.55;0.55;;;;;;;9.65;66.83;101249.56;18305267;32;20094;-59
2022/11/03 04:48:29;;;;;;;0.52;0.50;;;;;;;9.67;66.56;101225.28;18302885;32;20097;-59
2022/11/03 04:58:35;;;;;;;0.55;0.55;;;;;;;9.47;67.25;101238.00;18304061;32;20346;-59
2022/11/03 05:08:40;;;;;;;0.50;0.50;;;;;;;9.67;64.62;101253.06;18304225;32;20089;-59
2022/11/03 05:18:43;;;;;;;0.50;0.50;;;;;;;8.90;66.25;101250.94;18303707;32;20140;-59
2022/11/03 05:28:51;;;;;;;0.50;0.50;;;;;;;8.86;66.68;101263.00;18305660;32;20129;-59
2022/11/03 05:38:56;;;;;;;0.65;0.65;;;;;;;8.71;66.51;101262.75;18305991;32;20151;-59
2022/11/03 05:49:02;;;;;;;0.47;0.47;;;;;;;8.71;66.46;101266.19;18305285;32;20353;-59
2022/11/03 05:59:07;;;;;;;0.70;0.70;;;;;;;8.80;66.65;101273.34;18304611;32;20116;-59
2022/11/03 06:09:16;;;;;;;0.40;0.40;;;;;;;8.62;66.77;101302.47;18304780;32;20106;-59
2022/11/03 06:19:23;;;;;;;0.88;0.88;;;;;;;8.84;66.52;101308.13;18304418;32;20098;-59
2022/11/03 06:29:31;;;;;;;0.80;0.80;;;;;;;9.01;67.59;101322.34;18305314;32;20101;-59
2022/11/03 06:39:34;;;;;;;1.70;1.25;;;;;;;9.56;67.45;101329.38;18290203;32;20485;-59
2022/11/03 06:49:39;;;;;;;0.35;0.35;;;;;;;11.30;64.03;101330.81;18239805;32;20196;-59
2022/11/03 06:59:42;;;;;;;0.50;0.50;;;;;;;12.37;61.87;101327.28;18239822;32;20098;-59
2022/11/03 07:09:46;;;;;;;0.65;0.65;;;;;;;13.37;61.42;101317.97;18236616;32;20521;-59
2022/11/03 07:19:50;;;;;;;0.52;0.40;;;;;;;14.20;59.70;101322.31;18255414;32;20104;-59
2022/11/03 07:29:58;;;;;;;0.80;0.57;;;;;;;15.27;57.93;101334.16;18245959;32;20090;-59
2022/11/03 07:40:01;;;;;;;0.20;0.20;;;;;;;15.63;56.34;101337.34;18245575;32;20085;-59
2022/11/03 07:50:13;;;;;;;0.40;0.40;;;;;;;14.51;59.27;101339.75;18245076;32;20407;-59
2022/11/03 08:00:20;;;;;;;0.98;0.90;;;;;;;13.60;61.14;101346.88;18232089;32;20098;-60
2022/11/03 08:10:25;;;;;;;1.23;0.73;;;;;;;13.93;61.89;101337.22;18243896;32;20336;-59
2022/11/03 08:20:28;;;;;;;0.57;0.57;;;;;;;13.72;62.60;101351.28;18244676;32;20098;-59
2022/11/03 08:30:33;;;;;;;0.57;0.57;;;;;;;14.20;61.27;101332.81;18243874;32;20104;-59
2022/11/03 08:40:37;;;;;;;0.28;0.28;;;;;;;14.43;61.53;101309.13;18243684;32;20382;-59
2022/11/03 08:50:41;;;;;;;0.45;0.45;;;;;;;14.58;61.94;101320.47;18243745;32;20089;-59
2022/11/03 09:00:44;;;;;;;0.32;0.32;;;;;;;14.75;63.05;101312.50;18244825;32;20103;-59
2022/11/03 09:10:49;;;;;;;0.75;0.65;;;;;;;14.59;65.44;101313.44;18243496;32;20098;-59
2022/11/03 09:20:52;;;;;;;0.62;0.60;;;;;;;13.91;67.77;101307.50;18229188;32;20098;-59
2022/11/03 09:30:56;;;;;;;1.00;0.43;;;;;;;14.06;66.92;101309.22;18242725;32;20559;-59
2022/11/03 09:41:00;;;;;;;3.25;1.27;;;;;;;14.55;66.34;101302.06;18241882;32;20119;-59
2022/11/03 09:51:05;;;;;;;0.95;0.45;;;;;;;13.70;69.82;101304.03;18228013;32;20094;-59
2022/11/03 10:01:09;;;;;;;2.50;1.37;;;;;;;13.90;69.71;101287.38;18242113;32;20106;-59
2022/11/03 10:11:15;;;;;;;0.57;0.57;;;;;;;13.38;71.02;101278.66;18241592;32;20089;-59
2022/11/03 10:21:19;;;;;;;0.68;0.68;;;;;;;13.46;70.95;101271.66;18241832;32;20116;-59
2022/11/03 10:31:23;;;;;;;1.50;1.40;;;;;;;13.98;68.69;101259.38;18240716;32;20152;-59
2022/11/03 10:41:28;;;;;;;0.30;0.30;;;;;;;13.41;71.70;101239.31;18240496;32;20098;-59
2022/11/03 10:51:33;;;;;;;0.30;0.30;;;;;;;12.73;74.24;101228.78;18239782;32;20089;-59
2022/11/03 11:01:37;;;;;;;4.28;1.55;;;;;;;13.26;72.69;101205.22;18239721;32;20089;-59
2022/11/03 11:11:58;;;;;;;0.80;0.80;;;;;;;13.50;72.01;101187.75;18239015;32;20094;-59
2022/11/03 11:22:03;;;;;;;0.57;0.57;;;;;;;14.33;68.91;101162.09;18225025;32;20110;-59
2022/11/03 11:32:51;;;;;;;2.33;1.30;;;;;;;14.46;68.71;101149.72;18238779;32;20094;-59
2022/11/03 11:43:27;;;;;;;1.20;1.00;;;;;;;14.38;68.97;101124.41;18040782;32;20436;-59
2022/11/03 11:53:33;;;;;;;0.55;0.55;;;;;;;13.53;72.14;101119.53;18025362;32;20180;-59
2022/11/03 12:03:39;;;;;;;0.85;0.85;;;;;;;13.11;73.21;101102.13;18045626;32;20548;-59
2022/11/03 12:13:50;;;;;;;0.82;0.80;;;;;;;13.69;71.25;101088.88;18138344;32;20481;-60
2022/11/03 12:23:54;;;;;;;0.30;0.30;;;;;;;13.86;70.64;101080.94;18236979;32;20117;-60
2022/11/03 12:33:57;;;;;;;0.75;0.75;;;;;;;13.99;70.50;101064.25;18292063;32;20340;-59
2022/11/03 12:44:02;;;;;;;2.55;0.95;;;;;;;13.77;71.32;101058.22;18291381;32;20132;-59
2022/11/03 12:54:05;;;;;;;0.40;0.40;;;;;;;14.02;70.73;101044.97;18252555;32;20164;-60
2022/11/03 13:04:10;;;;;;;0.77;0.77;;;;;;;13.23;73.99;101026.94;18260180;32;20179;-60
2022/11/03 13:14:13;;;;;;;0.60;0.55;;;;;;;13.53;72.12;101026.00;18303704;32;20089;-60
2022/11/03 13:24:18;;;;;;;0.60;0.60;;;;;;;13.62;72.33;101014.59;18302572;32;20253;-59
2022/11/03 13:34:21;;;;;;;6.87;1.75;;;;;;;13.70;71.12;101014.53;18302590;32;20438;-60
2022/11/03 13:44:26;;;;;;;0.43;0.43;;;;;;;14.09;70.35;101002.06;18289712;32;20133;-60
2022/11/03 13:54:29;;;;;;;1.55;1.08;;;;;;;13.49;71.84;100994.53;18297882;32;20200;-59
2022/11/03 14:04:54;;;;;;;0.73;0.73;;;;;;;13.01;74.30;100998.19;18302481;32;20105;-60
2022/11/03 14:14:57;;;;;;;0.30;0.30;;;;;;;13.27;72.85;100992.84;18300686;32;20097;-60
2022/11/03 14:25:02;;;;;;;1.00;0.93;;;;;;;13.43;71.16;100982.31;18302034;32;20117;-59
2022/11/03 14:35:06;;;;;;;0.50;0.50;;;;;;;13.53;70.93;100986.66;18297898;32;20442;-60
2022/11/03 14:45:11;;;;;;;0.40;0.40;;;;;;;13.82;70.09;100954.12;18295944;32;20113;-60
2022/11/03 14:55:15;;;;;;;0.62;0.47;;;;;;;14.20;68.43;100957.31;18301064;32;20116;-60
2022/11/03 15:15:39;;;;;;;1.33;0.90;;;;;;;14.13;67.24;100934.63;18278478;32;20121;-61
2022/11/03 15:25:44;;;;;;;0.88;0.88;;;;;;;13.99;67.71;100934.75;18297104;32;20102;-60
2022/11/03 15:35:47;;;;;;;1.23;1.12;;;;;;;13.60;69.34;100921.91;18299840;32;20098;-60
2022/11/03 15:45:52;;;;;;;0.40;0.40;;;;;;;14.20;67.21;100925.81;18305633;32;20111;-60
2022/11/03 15:55:55;;;;;;;0.52;0.52;;;;;;;14.20;67.15;100909.22;18308314;32;20097;-60
2022/11/03 16:05:59;;;;;;;0.50;0.50;;;;;;;13.90;68.38;100912.06;18302075;32;20093;-60
2022/11/03 16:16:03;;;;;;;1.45;1.35;;;;;;;14.02;67.56;100905.88;18306391;32;20116;-60
2022/11/03 16:26:07;;;;;;;1.60;1.15;;;;;;;13.56;69.32;100904.44;18307751;32;20103;-60
2022/11/03 16:36:11;;;;;;;1.20;0.80;;;;;;;13.15;71.29;100896.78;18285098;32;20086;-60
2022/11/03 16:46:15;;;;;;;1.40;1.00;;;;;;;13.73;68.48;100875.47;18305312;32;20108;-59
2022/11/03 16:56:18;;;;;;;0.70;0.62;;;;;;;14.11;67.16;100883.91;18287162;32;20089;-61
2022/11/03 17:06:23;;;;;;;0.55;0.40;;;;;;;14.15;66.79;100872.50;18297266;32;20089;-59
2022/11/03 17:16:26;;;;;;;0.98;0.95;;;;;;;14.24;66.58;100877.66;18288302;32;20102;-60
2022/11/03 17:26:35;;;;;;;0.40;0.40;;;;;;;14.06;67.26;100875.22;18299675;32;20130;-59
2022/11/03 17:36:45;;;;;;;1.95;1.58;;;;;;;14.17;67.02;100872.47;18240730;32;20623;-62
2022/11/03 17:46:50;;;;;;;2.10;1.65;;;;;;;14.14;67.21;100857.63;18314805;32;20505;-60
2022/11/03 17:56:53;;;;;;;0.40;0.40;;;;;;;14.13;67.15;100837.50;18302424;32;20389;-60
2022/11/03 18:06:58;;;;;;;0.77;0.62;;;;;;;14.08;67.73;100834.91;18303570;32;20160;-59
2022/11/03 18:17:01;;;;;;;4.15;0.68;;;;;;;14.23;66.95;100786.66;18304719;32;20101;-59
2022/11/03 18:27:10;;;;;;;1.27;1.00;;;;;;;14.26;67.14;100797.09;18280249;32;20144;-59
2022/11/03 18:37:13;;;;;;;1.48;0.98;;;;;;;14.15;67.37;100773.59;18276236;32;20105;-60
2022/11/03 18:47:18;;;;;;;1.42;1.35;;;;;;;14.31;66.84;100754.16;18303919;32;20098;-59
2022/11/03 18:57:24;;;;;;;3.03;1.02;;;;;;;14.22;66.52;100749.91;18285332;32;20112;-59
2022/11/03 19:07:33;;;;;;;1.98;1.42;;;;;;;14.12;67.12;100728.13;18282843;32;20111;-59
2022/11/03 19:17:37;;;;;;;3.05;1.60;;;;;;;14.14;67.16;100723.75;18283469;32;20185;-59
2022/11/03 19:27:44;;;;;;;3.45;1.52;;;;;;;14.21;67.03;100701.75;18297426;32;20106;-59
2022/11/03 19:37:49;;;;;;;2.20;2.00;;;;;;;14.24;67.16;100683.34;18296901;32;20097;-59
2022/11/03 19:47:56;;;;;;;1.00;0.88;;;;;;;14.24;67.40;100669.34;18295827;32;20243;-59
2022/11/03 19:58:20;;;;;;;2.17;1.25;;;;;;;14.25;67.57;100668.44;18281395;32;148836;-59
2022/11/03 20:08:26;;;;;;;8.13;1.75;;;;;;;14.35;67.10;100648.22;18298961;32;20115;-59
2022/11/03 20:18:30;;;;;;;1.33;1.23;;;;;;;14.35;67.25;100649.06;18285616;32;20105;-59
2022/11/03 20:28:36;;;;;;;0.65;0.62;;;;;;;14.35;66.99;100632.44;18307902;32;20093;-59
2022/11/03 20:38:39;;;;;;;2.10;1.00;;;;;;;13.93;67.63;100619.87;18291898;32;20150;-59
2022/11/03 20:48:44;;;;;;;1.17;1.10;;;;;;;14.15;66.50;100600.31;18306139;32;20464;-59
2022/11/03 20:58:48;;;;;;;1.65;1.52;;;;;;;14.00;66.69;100590.91;18292487;32;20224;-59
2022/11/03 21:08:54;;;;;;;0.52;0.52;;;;;;;14.13;66.63;100569.72;18287416;32;20244;-60
2022/11/03 21:29:19;;;;;;;0.88;0.82;;;;;;;14.53;65.38;100573.50;18274418;32;20094;-60
2022/11/03 21:39:43;;;;;;;2.25;1.50;;;;;;;14.53;65.47;100563.00;18292326;32;20125;-60
2022/11/03 21:49:47;;;;;;;0.50;0.50;;;;;;;14.56;65.60;100558.56;18291917;32;20097;-60
2022/11/03 21:59:51;;;;;;;0.90;0.88;;;;;;;14.58;65.42;100550.69;18300062;32;20121;-60
2022/11/03 22:09:55;;;;;;;0.40;0.40;;;;;;;14.61;65.10;100540.09;18289992;32;20094;-59
2022/11/03 22:51:06;;;;;;;2.33;1.30;;;;;;;13.86;66.74;100459.88;18294312;32;20108;-60
2022/11/03 23:01:11;;;;;;;0.37;0.37;;;;;;;14.26;65.36;100437.37;18298289;32;20508;-59
2022/11/03 23:11:18;;;;;;;0.32;0.32;;;;;;;14.44;64.74;100440.59;18239314;32;20094;-59
2022/11/03 23:21:21;;;;;;;0.73;0.73;;;;;;;14.50;64.82;100445.72;18238928;32;20101;-59
2022/11/03 23:31:25;;;;;;;0.30;0.30;;;;;;;14.41;65.14;100432.75;18238969;32;20128;-59
2022/11/03 23:41:29;;;;;;;0.50;0.50;;;;;;;14.33;65.54;100417.13;18237646;32;20098;-60
2022/11/03 23:51:34;;;;;;;1.45;0.75;;;;;;;14.45;65.16;100410.81;18236400;32;20138;-59
